Marcella, Arkansas
Current Conditions -  °F | °C
As of 1:35 PM on Thursday 23 Oct 2014 (Local Time) from KBVX Reporting Station
Clear Clear  
Wind Chill: 55°   Ceiling: Unl
Heat Index: 55°   Visibility: 10mi
Dew Point: 46°   Wind: 0mph
Humidity: 72%   Direction: NA
Pressure: 30.2"   Gusts: NA
Location:  35.79°N, 91.88°W
Report Text: KBVX 231835Z AUTO 00000KT 10SM CLR 13/08 A3020 RMK AO1
Loading
Personal Weather Stations






























Interactive Weather Map
Tropical Storm Tracking
New forecast layout! Learn more

10-Day Weather Forecast

Advertisements
Track Severe Weather on mobile